Latest Coastal Weather Observations for Roebourne Airport

IDW60701

Issued at 11:03 pm WST Monday 29 May 2017 (issued every 10 minutes, with the page automatically refreshed every 10 minutes)

About coastal observations | Map of coastal stations | Coastal observations for WA | Marine services | Other Formats
Station Details ID: 004090 Name: ROEBOURNE AERO Lat: -20.76 Lon: 117.16 Height: 10.7 m
Data from the previous 72 hours. | See also: Recent months at Roebourne Airport
Date/Time
WST
Temp
°C
Wind Pressure Rain since
9am
mm
Weather Cloud Vis
km
Sea
Height
m
Swell
Dir  Spd
kts
Gust
kts
hPa Trend Height
m
Period
s
Dir
29/11:00pm 16.9 SSE 7 8 1017.4 - 0.0 - - - - - - -
29/10:30pm 16.7 WNW 1 8 1017.4 - 0.0 - - - - - - -
29/10:00pm 19.3 S 3 4 1017.1 - 0.0 - - - - - - -
29/09:30pm 18.4 S 7 8 1017.1 - 0.0 - - - - - - -
29/09:00pm 19.0 SSW 5 6 1017.0 - 0.0 - - - - - - -
29/08:30pm 18.9 S 4 5 1016.7 - 0.0 - - - - - - -
29/08:00pm 19.4 CALM 0 0 1016.5 - 0.0 - - - - - - -
29/07:30pm 20.5 CALM 0 0 1016.3 - 0.0 - - - - - - -
29/07:00pm 21.6 CALM 0 0 1016.1 - 0.0 - - - - - - -
29/06:30pm 23.1 NNW 4 4 1016.0 - 0.0 - - - - - - -
29/06:00pm 24.4 NNW 4 5 1015.8 - 0.0 - - - - - - -
29/05:30pm 26.1 N 6 7 1015.6 - 0.0 - - - - - - -
29/05:00pm 27.1 N 9 11 1015.5 - 0.0 - - - - - - -
29/04:30pm 28.1 NNE 9 10 1015.3 - 0.0 - - - - - - -
29/04:00pm 29.2 NNE 7 9 1015.2 - 0.0 - - - - - - -
29/03:30pm 29.0 NNE 9 13 1015.2 - 0.0 - - - - - - -
29/03:00pm 29.4 NNE 11 13 1015.3 - 0.0 - - - - - - -
29/02:30pm 29.9 NE 9 13 1015.3 - 0.0 - - - - - - -
29/02:00pm 30.0 NE 11 15 1015.3 - 0.0 - - - - - - -
29/01:30pm 29.9 NE 11 16 1015.4 - 0.0 - - - - - - -
29/01:00pm 29.9 E 12 18 1015.8 - 0.0 - - - - - - -
29/12:30pm 30.3 ESE 11 16 1016.2 - 0.0 - - - - - - -
29/12:00pm 29.3 ESE 13 17 1016.6 - 0.0 - - - - - - -
29/11:30am 28.5 ESE 13 17 1017.2 - 0.0 - - - - - - -
29/11:00am 27.4 ESE 14 18 1017.7 - 0.0 - - - - - - -
29/10:30am 26.5 ESE 15 21 1018.0 - 0.0 - - - - - - -
29/10:00am 25.8 ESE 16 21 1018.3 - 0.0 - - - - - - -
29/09:30am 24.6 ESE 16 21 1018.2 - 0.0 - - - - - - -
29/09:00am 23.1 ESE 17 21 1018.2 - 0.0 - - - - - - -
29/08:30am 22.3 ESE 15 21 1018.2 - 0.0 - - - - - - -
29/08:00am 21.3 SE 12 15 1018.0 - 0.0 - - - - - - -
29/07:30am 19.7 SE 6 8 1017.8 - 0.0 - - - - - - -
29/07:00am 17.2 SE 6 8 1017.6 - 0.0 - - - - - - -
29/06:30am 16.9 ESE 5 6 1017.3 - 0.0 - - - - - - -
29/06:00am 16.7 SE 5 7 1017.0 - 0.0 - - - - - - -
29/05:30am 16.8 SE 6 7 1016.7 - 0.0 - - - - - - -
29/05:00am 16.9 SE 6 6 1016.6 - 0.0 - - - - - - -
29/04:30am 17.0 SE 6 7 1016.5 - 0.0 - - - - - - -
29/04:00am 16.9 ESE 6 7 1016.4 - 0.0 - - - - - - -
29/03:30am 17.5 ESE 5 7 1016.3 - 0.0 - - - - - - -
29/03:00am 16.7 SE 6 7 1016.4 - 0.0 - - - - - - -
29/02:30am 17.5 ESE 5 6 1016.5 - 0.0 - - - - - - -
29/02:00am 18.4 E 5 6 1016.5 - 0.0 - - - - - - -
29/01:30am 19.0 ESE 3 4 1016.7 - 0.0 - - - - - - -
29/01:00am 19.8 ESE 4 4 1016.7 - 0.0 - - - - - - -
29/12:30am 20.8 SE 3 4 1016.8 - 0.0 - - - - - - -
29/12:00am 21.5 ESE 9 11 1016.6 - 0.0 - - - - - - -
 
Date/Time
WST
Temp
°C
Wind Pressure Rain since
9am
mm
Weather Cloud Vis
km
Sea
Height
m
Swell
Dir  Spd
kts
Gust
kts
hPa Trend Height
m
Period
s
Dir
28/11:30pm 21.8 ESE 10 14 1016.8 - 0.0 - - - - - - -
28/11:00pm 21.2 ESE 8 11 1016.9 - 0.0 - - - - - - -
28/10:30pm 21.5 ESE 6 8 1017.0 - 0.0 - - - - - - -
28/10:00pm 21.5 SE 7 8 1016.9 - 0.0 - - - - - - -
28/09:30pm 23.3 ESE 10 12 1016.8 - 0.0 - - - - - - -
28/09:00pm 24.1 E 8 9 1016.6 - 0.0 - - - - - - -
28/08:30pm 25.1 E 5 8 1016.6 - 0.0 - - - - - - -
28/08:00pm 25.6 SE 7 9 1016.5 - 0.0 - - - - - - -
28/07:30pm 25.3 SSE 11 14 1016.4 - 0.0 - - - - - - -
28/07:00pm 25.0 SE 15 20 1016.0 - 0.0 - - - - - - -
28/06:30pm 24.9 SE 19 26 1015.3 - 0.0 - - - - - - -
28/06:00pm 27.1 SE 18 25 1014.8 - 0.0 - - - - - - -
28/05:53pm 28.0 ESE 13 23 1014.4 - 0.0 - - - - - - -
28/05:30pm 29.2 ENE 10 13 1014.0 - 0.0 - - - - - - -
28/05:00pm 30.0 NE 12 16 1013.7 - 0.0 - - - - - - -
28/04:30pm 30.7 NE 13 16 1013.5 - 0.0 - - - - - - -
28/04:00pm 31.3 NE 13 16 1013.2 - 0.0 - - - - - - -
28/03:30pm 31.5 NE 14 17 1013.1 - 0.0 - - - - - - -
28/03:00pm 31.8 NE 15 18 1013.2 - 0.0 - - - - - - -
28/02:30pm 31.8 NE 15 19 1013.3 - 0.0 - - - - - - -
28/02:00pm 32.2 NE 14 19 1013.2 - 0.0 - - - - - - -
28/01:30pm 32.1 NE 13 18 1013.3 - 0.0 - - - - - - -
28/01:00pm 32.3 ENE 11 16 1013.4 - 0.0 - - - - - - -
28/12:30pm 31.9 ENE 14 19 1013.9 - 0.0 - - - - - - -
28/12:00pm 32.0 ENE 13 18 1014.4 - 0.0 - - - - - - -
28/11:30am 31.8 E 11 15 1014.9 - 0.0 - - - - - - -
28/11:00am 30.6 ESE 11 15 1015.2 - 0.0 - - - - - - -
28/10:30am 29.7 E 13 16 1015.7 - 0.0 - - - - - - -
28/10:00am 28.9 ESE 14 19 1015.8 - 0.0 - - - - - - -
28/09:30am 27.8 ESE 13 16 1016.0 - 0.0 - - - - - - -
28/09:00am 27.2 ESE 14 20 1016.0 - 0.0 - - - - - - -
28/08:30am 25.8 ESE 8 11 1015.8 - 0.0 - - - - - - -
28/08:00am 22.7 E 5 7 1015.6 - 0.0 - - - - - - -
28/07:30am 19.0 SSE 5 6 1015.1 - 0.0 - - - - - - -
28/07:00am 16.7 WSW 5 6 1014.6 - 0.0 - - - - - - -
28/06:30am 16.4 WNW 3 3 1014.4 - 0.0 - - - - - - -
28/06:00am 17.1 SW 2 5 1014.2 - 0.0 - - - - - - -
28/05:30am 18.6 SSE 3 4 1014.0 - 0.0 - - - - - - -
28/05:00am 19.7 SSE 9 14 1014.1 - 0.0 - - - - - - -
28/04:30am 16.5 W 3 5 1013.7 - 0.0 - - - - - - -
28/04:00am 17.5 WNW 4 6 1013.5 - 0.0 - - - - - - -
28/03:30am 18.3 WNW 4 6 1013.3 - 0.0 - - - - - - -
28/03:00am 18.1 WNW 5 5 1013.4 - 0.0 - - - - - - -
28/02:30am 18.1 CALM 0 0 1013.6 - 0.0 - - - - - - -
28/02:00am 18.5 N 3 4 1014.0 - 0.0 - - - - - - -
28/01:30am 19.8 ENE 2 5 1014.2 - 0.0 - - - - - - -
28/01:00am 20.8 E 5 8 1014.1 - 0.0 - - - - - - -
28/12:30am 22.1 ESE 7 10 1014.3 - 0.0 - - - - - - -
28/12:00am 22.9 SW 7 8 1014.1 - 0.0 - - - - - - -
 
Date/Time
WST
Temp
°C
Wind Pressure Rain since
9am
mm
Weather Cloud Vis
km
Sea
Height
m
Swell
Dir  Spd
kts
Gust
kts
hPa Trend Height
m
Period
s
Dir
27/11:30pm 22.9 SW 6 8 1014.2 - 0.0 - - - - - - -
27/11:00pm 23.2 SW 6 8 1014.3 - 0.0 - - - - - - -
27/10:30pm 23.3 WSW 7 9 1014.3 - 0.0 - - - - - - -
27/10:00pm 23.5 WSW 7 8 1014.4 - 0.0 - - - - - - -
27/09:30pm 23.9 WSW 7 9 1014.5 - 0.0 - - - - - - -
27/09:00pm 24.4 WSW 7 9 1014.4 - 0.0 - - - - - - -
27/08:30pm 24.5 W 7 9 1014.1 - 0.0 - - - - - - -
27/08:00pm 25.3 WNW 9 11 1013.8 - 0.0 - - - - - - -
27/07:30pm 24.3 WSW 4 6 1013.5 - 0.0 - - - - - - -
27/07:00pm 25.7 W 5 7 1013.4 - 0.0 - - - - - - -
27/06:30pm 26.4 W 6 8 1012.9 - 0.0 - - - - - - -
27/06:00pm 26.6 NW 7 7 1012.5 - 0.0 - - - - - - -
27/05:30pm 28.4 NW 9 11 1012.4 - 0.0 - - - - - - -
27/05:00pm 30.6 N 9 11 1012.1 - 0.0 - - - - - - -
27/04:30pm 31.0 N 9 13 1011.9 - 0.0 - - - - - - -
27/04:00pm 32.6 N 10 13 1011.8 - 0.0 - - - - - - -
27/03:30pm 33.2 N 10 12 1011.7 - 0.0 - - - - - - -
27/03:00pm 33.2 NNE 9 11 1011.7 - 0.0 - - - - - - -
27/02:30pm 33.2 NNE 10 12 1011.7 - 0.0 - - - - - - -
27/02:00pm 32.7 NNE 11 14 1011.9 - 0.0 - - - - - - -
27/01:30pm 32.4 NNE 12 15 1012.1 - 0.0 - - - - - - -
27/01:00pm 33.0 NNE 11 13 1012.4 - 0.0 - - - - - - -
27/12:30pm 32.7 NNE 12 16 1012.8 - 0.0 - - - - - - -
27/12:00pm 34.0 NE 9 15 1013.0 - 0.0 - - - - - - -
27/11:30am 33.9 E 5 8 1013.3 - 0.0 - - - - - - -
27/11:00am 33.5 SSW 3 6 1013.6 - 0.0 - - - - - - -
27/10:30am 31.2 SSE 4 6 1013.9 - 0.0 - - - - - - -
27/10:00am 30.5 SSE 5 7 1014.0 - 0.0 - - - - - - -
27/09:30am 29.3 SSE 4 7 1014.2 - 0.0 - - - - - - -
27/09:00am 27.1 S 6 7 1014.2 - 0.0 - - - - - - -
27/08:30am 25.4 SSE 4 6 1014.1 - 0.0 - - - - - - -
27/08:00am 23.0 ESE 3 5 1014.1 - 0.0 - - - - - - -
27/07:30am 18.4 ENE 3 6 1013.8 - 0.0 - - - - - - -
27/07:00am 15.5 E 6 7 1013.8 - 0.0 - - - - - - -
27/06:30am 16.5 SW 4 6 1013.4 - 0.0 - - - - - - -
27/06:00am 17.7 NE 4 5 1013.4 - 0.0 - - - - - - -
27/05:30am 18.6 E 4 8 1013.3 - 0.0 - - - - - - -
27/05:00am 18.2 S 2 5 1013.1 - 0.0 - - - - - - -
27/04:30am 20.2 SSW 5 6 1013.0 - 0.0 - - - - - - -
27/04:00am 21.7 WSW 6 7 1012.9 - 0.0 - - - - - - -
27/03:30am 22.5 SW 7 9 1012.8 - 0.0 - - - - - - -
27/03:00am 22.5 WSW 7 9 1012.9 - 0.0 - - - - - - -
27/02:30am 21.9 SW 6 7 1013.2 - 0.0 - - - - - - -
27/02:00am 21.8 SW 6 8 1013.4 - 0.0 - - - - - - -
27/01:30am 22.4 SW 8 9 1013.6 - 0.0 - - - - - - -
27/01:00am 22.0 SSW 3 6 1014.0 - 0.0 - - - - - - -
27/12:30am 22.6 WSW 5 7 1014.1 - 0.0 - - - - - - -
27/12:00am 22.6 WSW 3 5 1014.2 - 0.0 - - - - - - -
 
Date/Time
WST
Temp
°C
Wind Pressure Rain since
9am
mm
Weather Cloud Vis
km
Sea
Height
m
Swell
Dir  Spd
kts
Gust
kts
hPa Trend Height
m
Period
s
Dir
26/11:30pm 23.5 WSW 6 7 1014.4 - 0.0 - - - - - - -

Other Formats:

Comma delimited format used in spreadsheet applications
http://www.bom.gov.au/fwo/IDW60701/IDW60701.94308.axf

JavaScript Object Notation format (JSON) in row-major order
http://www.bom.gov.au/fwo/IDW60701/IDW60701.94308.json